Aviation Digital Data Service (ADDS)

Output produced by METARs form (2325 UTC 23 March 2019)
found at http://www.aviationweather.gov/metar/data/
 
METAR text: ROMD 232300Z AUTO 03012KT 9999 FEW039 SCT042 BKN044 18/10 Q1019
Conditions at: ROMD (MINAMIDAITOJIMA , JP) observed 2300 UTC 23 March 2019
Temperature: 18.0°C (64°F)
Dewpoint: 10.0°C (50°F) [RH = 59%]
Pressure (altimeter): 30.09 inches Hg (1019.0 mb)
Winds: from the NNE (30 degrees) at 14 MPH (12 knots; 6.2 m/s)
Visibility: 6 or more miles (10+ km)
Ceiling: 4400 feet AGL
Clouds: few clouds at 3900 feet AGL
scattered clouds at 4200 feet AGL
broken clouds at 4400 feet AGL
Weather: no significant weather observed at this time

METAR text: ROMD 232200Z AUTO 03013KT 9999 FEW043 SCT046 17/08 Q1019
Conditions at: ROMD (MINAMIDAITOJIMA , JP) observed 2200 UTC 23 March 2019
Temperature: 17.0°C (63°F)
Dewpoint: 8.0°C (46°F) [RH = 55%]
Pressure (altimeter): 30.09 inches Hg (1019.0 mb)
Winds: from the NNE (30 degrees) at 15 MPH (13 knots; 6.7 m/s)
Visibility: 6 or more miles (10+ km)
Ceiling: at least 12,000 feet AGL
Clouds: few clouds at 4300 feet AGL
scattered clouds at 4600 feet AGL
Weather: no significant weather observed at this time

METAR text: ROMD 232100Z AUTO 02014KT 9999 FEW040 BKN044 17/08 Q1018
Conditions at: ROMD (MINAMIDAITOJIMA , JP) observed 2100 UTC 23 March 2019
Temperature: 17.0°C (63°F)
Dewpoint: 8.0°C (46°F) [RH = 55%]
Pressure (altimeter): 30.06 inches Hg (1018.0 mb)
Winds: from the NNE (20 degrees) at 16 MPH (14 knots; 7.2 m/s)
Visibility: 6 or more miles (10+ km)
Ceiling: 4400 feet AGL
Clouds: few clouds at 4000 feet AGL
broken clouds at 4400 feet AGL
Weather: no significant weather observed at this time

METAR text: ROMD 232000Z AUTO 36014KT 9999 OVC042 17/09 Q1018
Conditions at: ROMD (MINAMIDAITOJIMA , JP) observed 2000 UTC 23 March 2019
Temperature: 17.0°C (63°F)
Dewpoint: 9.0°C (48°F) [RH = 59%]
Pressure (altimeter): 30.06 inches Hg (1018.0 mb)
Winds: from the N (360 degrees) at 16 MPH (14 knots; 7.2 m/s)
Visibility: 6 or more miles (10+ km)
Ceiling: 4200 feet AGL
Clouds: overcast cloud deck at 4200 feet AGL
Weather: no significant weather observed at this time

METAR text: ROMD 231900Z AUTO 01018KT 9999 SCT042 17/08 Q1018
Conditions at: ROMD (MINAMIDAITOJIMA , JP) observed 1900 UTC 23 March 2019
Temperature: 17.0°C (63°F)
Dewpoint: 8.0°C (46°F) [RH = 55%]
Pressure (altimeter): 30.06 inches Hg (1018.0 mb)
Winds: from the N (10 degrees) at 21 MPH (18 knots; 9.3 m/s)
Visibility: 6 or more miles (10+ km)
Ceiling: at least 12,000 feet AGL
Clouds: scattered clouds at 4200 feet AGL
Weather: no significant weather observed at this time

METAR text: ROMD 231800Z AUTO 36017KT 9999 BKN038 OVC045 17/09 Q1018
Conditions at: ROMD (MINAMIDAITOJIMA , JP) observed 1800 UTC 23 March 2019
Temperature: 17.0°C (63°F)
Dewpoint: 9.0°C (48°F) [RH = 59%]
Pressure (altimeter): 30.06 inches Hg (1018.0 mb)
Winds: from the N (360 degrees) at 20 MPH (17 knots; 8.7 m/s)
Visibility: 6 or more miles (10+ km)
Ceiling: 3800 feet AGL
Clouds: broken clouds at 3800 feet AGL
overcast cloud deck at 4500 feet AGL
Weather: no significant weather observed at this time

METAR text: ROMD 231700Z AUTO 36014KT 9999 SCT042 17/08 Q1018
Conditions at: ROMD (MINAMIDAITOJIMA , JP) observed 1700 UTC 23 March 2019
Temperature: 17.0°C (63°F)
Dewpoint: 8.0°C (46°F) [RH = 55%]
Pressure (altimeter): 30.06 inches Hg (1018.0 mb)
Winds: from the N (360 degrees) at 16 MPH (14 knots; 7.2 m/s)
Visibility: 6 or more miles (10+ km)
Ceiling: at least 12,000 feet AGL
Clouds: scattered clouds at 4200 feet AGL
Weather: no significant weather observed at this time

METAR text: ROMD 231600Z AUTO 36017KT 9999 FEW036 18/09 Q1018
Conditions at: ROMD (MINAMIDAITOJIMA , JP) observed 1600 UTC 23 March 2019
Temperature: 18.0°C (64°F)
Dewpoint: 9.0°C (48°F) [RH = 56%]
Pressure (altimeter): 30.06 inches Hg (1018.0 mb)
Winds: from the N (360 degrees) at 20 MPH (17 knots; 8.7 m/s)
Visibility: 6 or more miles (10+ km)
Ceiling: at least 12,000 feet AGL
Clouds: few clouds at 3600 feet AGL
Weather: no significant weather observed at this time

METAR text: ROMD 231500Z AUTO 35016KT 9999 BKN034 BKN042 BKN050 18/10 Q1018
Conditions at: ROMD (MINAMIDAITOJIMA , JP) observed 1500 UTC 23 March 2019
Temperature: 18.0°C (64°F)
Dewpoint: 10.0°C (50°F) [RH = 59%]
Pressure (altimeter): 30.06 inches Hg (1018.0 mb)
Winds: from the N (350 degrees) at 18 MPH (16 knots; 8.2 m/s)
Visibility: 6 or more miles (10+ km)
Ceiling: 3400 feet AGL
Clouds: broken clouds at 3400 feet AGL
broken clouds at 4200 feet AGL
broken clouds at 5000 feet AGL
Weather: no significant weather observed at this time

METAR text: ROMD 231400Z AUTO 35018KT 9999 FEW032 SCT049 OVC050 19/12 Q1018
Conditions at: ROMD (MINAMIDAITOJIMA , JP) observed 1400 UTC 23 March 2019
Temperature: 19.0°C (66°F)
Dewpoint: 12.0°C (54°F) [RH = 64%]
Pressure (altimeter): 30.06 inches Hg (1018.0 mb)
Winds: from the N (350 degrees) at 21 MPH (18 knots; 9.3 m/s)
Visibility: 6 or more miles (10+ km)
Ceiling: 5000 feet AGL
Clouds: few clouds at 3200 feet AGL
scattered clouds at 4900 feet AGL
overcast cloud deck at 5000 feet AGL
Weather: no significant weather observed at this time

METAR text: ROMD 231300Z AUTO 35013G25KT 9999 FEW021 SCT031 BKN034 18/13 Q1018
Conditions at: ROMD (MINAMIDAITOJIMA , JP) observed 1300 UTC 23 March 2019
Temperature: 18.0°C (64°F)
Dewpoint: 13.0°C (55°F) [RH = 73%]
Pressure (altimeter): 30.06 inches Hg (1018.0 mb)
Winds: from the N (350 degrees) at 15 MPH (13 knots; 6.7 m/s)
gusting to 29 MPH (25 knots; 12.9 m/s)
Visibility: 6 or more miles (10+ km)
Ceiling: 3400 feet AGL
Clouds: few clouds at 2100 feet AGL
scattered clouds at 3100 feet AGL
broken clouds at 3400 feet AGL
Weather: no significant weather observed at this time

METAR text: ROMD 231200Z AUTO 35015KT 9999 SCT034 BKN038 BKN042 19/12 Q1017
Conditions at: ROMD (MINAMIDAITOJIMA , JP) observed 1200 UTC 23 March 2019
Temperature: 19.0°C (66°F)
Dewpoint: 12.0°C (54°F) [RH = 64%]
Pressure (altimeter): 30.03 inches Hg (1017.0 mb)
Winds: from the N (350 degrees) at 17 MPH (15 knots; 7.7 m/s)
Visibility: 6 or more miles (10+ km)
Ceiling: 3800 feet AGL
Clouds: scattered clouds at 3400 feet AGL
broken clouds at 3800 feet AGL
broken clouds at 4200 feet AGL
Weather: no significant weather observed at this time

METAR text: ROMD 231100Z AUTO 35016KT 9999 SCT031 OVC036 19/13 Q1017
Conditions at: ROMD (MINAMIDAITOJIMA , JP) observed 1100 UTC 23 March 2019
Temperature: 19.0°C (66°F)
Dewpoint: 13.0°C (55°F) [RH = 68%]
Pressure (altimeter): 30.03 inches Hg (1017.0 mb)
Winds: from the N (350 degrees) at 18 MPH (16 knots; 8.2 m/s)
Visibility: 6 or more miles (10+ km)
Ceiling: 3600 feet AGL
Clouds: scattered clouds at 3100 feet AGL
overcast cloud deck at 3600 feet AGL
Weather: no significant weather observed at this time

METAR text: ROMD 231000Z AUTO 34013KT 9999 FEW033 OVC043 19/12 Q1016
Conditions at: ROMD (MINAMIDAITOJIMA , JP) observed 1000 UTC 23 March 2019
Temperature: 19.0°C (66°F)
Dewpoint: 12.0°C (54°F) [RH = 64%]
Pressure (altimeter): 30.00 inches Hg (1016.0 mb)
Winds: from the NNW (340 degrees) at 15 MPH (13 knots; 6.7 m/s)
Visibility: 6 or more miles (10+ km)
Ceiling: 4300 feet AGL
Clouds: few clouds at 3300 feet AGL
overcast cloud deck at 4300 feet AGL
Weather: no significant weather observed at this time

METAR text: ROMD 230900Z AUTO 34014KT 310V010 9999 FEW030 SCT033 OVC038 19/12 Q1015
Conditions at: ROMD (MINAMIDAITOJIMA , JP) observed 0900 UTC 23 March 2019
Temperature: 19.0°C (66°F)
Dewpoint: 12.0°C (54°F) [RH = 64%]
Pressure (altimeter): 29.97 inches Hg (1015.0 mb)
Winds: from the NNW (340 degrees) at 16 MPH (14 knots; 7.2 m/s)
Visibility: 6 or more miles (10+ km)
Ceiling: 3800 feet AGL
Clouds: few clouds at 3000 feet AGL
scattered clouds at 3300 feet AGL
overcast cloud deck at 3800 feet AGL
Weather: no significant weather observed at this time

METAR text: ROMD 230800Z AUTO 34013KT 9999 BKN029 OVC040 20/13 Q1015
Conditions at: ROMD (MINAMIDAITOJIMA , JP) observed 0800 UTC 23 March 2019
Temperature: 20.0°C (68°F)
Dewpoint: 13.0°C (55°F) [RH = 64%]
Pressure (altimeter): 29.97 inches Hg (1015.0 mb)
Winds: from the NNW (340 degrees) at 15 MPH (13 knots; 6.7 m/s)
Visibility: 6 or more miles (10+ km)
Ceiling: 2900 feet AGL
Clouds: broken clouds at 2900 feet AGL
overcast cloud deck at 4000 feet AGL
Weather: no significant weather observed at this time

METAR text: ROMD 230700Z AUTO 34012KT 310V010 9999 FEW028 SCT031 BKN042 21/14 Q1014
Conditions at: ROMD (MINAMIDAITOJIMA , JP) observed 0700 UTC 23 March 2019
Temperature: 21.0°C (70°F)
Dewpoint: 14.0°C (57°F) [RH = 64%]
Pressure (altimeter): 29.94 inches Hg (1014.0 mb)
Winds: from the NNW (340 degrees) at 14 MPH (12 knots; 6.2 m/s)
Visibility: 6 or more miles (10+ km)
Ceiling: 4200 feet AGL
Clouds: few clouds at 2800 feet AGL
scattered clouds at 3100 feet AGL
broken clouds at 4200 feet AGL
Weather: no significant weather observed at this time

METAR text: ROMD 230600Z AUTO 33011KT 300V010 9999 FEW027 OVC031 21/13 Q1014
Conditions at: ROMD (MINAMIDAITOJIMA , JP) observed 0600 UTC 23 March 2019
Temperature: 21.0°C (70°F)
Dewpoint: 13.0°C (55°F) [RH = 60%]
Pressure (altimeter): 29.94 inches Hg (1014.0 mb)
Winds: from the NNW (330 degrees) at 13 MPH (11 knots; 5.7 m/s)
Visibility: 6 or more miles (10+ km)
Ceiling: 3100 feet AGL
Clouds: few clouds at 2700 feet AGL
overcast cloud deck at 3100 feet AGL
Weather: no significant weather observed at this time

METAR text: ROMD 230500Z AUTO 34011KT 310V020 9999 FEW019 SCT025 OVC050 21/14 Q1014
Conditions at: ROMD (MINAMIDAITOJIMA , JP) observed 0500 UTC 23 March 2019
Temperature: 21.0°C (70°F)
Dewpoint: 14.0°C (57°F) [RH = 64%]
Pressure (altimeter): 29.94 inches Hg (1014.0 mb)
Winds: from the NNW (340 degrees) at 13 MPH (11 knots; 5.7 m/s)
Visibility: 6 or more miles (10+ km)
Ceiling: 5000 feet AGL
Clouds: few clouds at 1900 feet AGL
scattered clouds at 2500 feet AGL
overcast cloud deck at 5000 feet AGL
Weather: no significant weather observed at this time

METAR text: ROMD 230400Z AUTO 34014KT 9999 FEW015 SCT020 BKN045 20/15 Q1015
Conditions at: ROMD (MINAMIDAITOJIMA , JP) observed 0400 UTC 23 March 2019
Temperature: 20.0°C (68°F)
Dewpoint: 15.0°C (59°F) [RH = 73%]
Pressure (altimeter): 29.97 inches Hg (1015.0 mb)
Winds: from the NNW (340 degrees) at 16 MPH (14 knots; 7.2 m/s)
Visibility: 6 or more miles (10+ km)
Ceiling: 4500 feet AGL
Clouds: few clouds at 1500 feet AGL
scattered clouds at 2000 feet AGL
broken clouds at 4500 feet AGL
Weather: no significant weather observed at this time

METAR text: ROMD 230300Z AUTO 35012KT 310V030 9999 FEW044 BKN060 22/15 Q1016
Conditions at: ROMD (MINAMIDAITOJIMA , JP) observed 0300 UTC 23 March 2019
Temperature: 22.0°C (72°F)
Dewpoint: 15.0°C (59°F) [RH = 65%]
Pressure (altimeter): 30.00 inches Hg (1016.0 mb)
Winds: from the N (350 degrees) at 14 MPH (12 knots; 6.2 m/s)
Visibility: 6 or more miles (10+ km)
Ceiling: 6000 feet AGL
Clouds: few clouds at 4400 feet AGL
broken clouds at 6000 feet AGL
Weather: no significant weather observed at this time

METAR text: ROMD 230200Z AUTO 34011KT 9999 FEW025 SCT043 BKN048 21/14 Q1016
Conditions at: ROMD (MINAMIDAITOJIMA , JP) observed 0200 UTC 23 March 2019
Temperature: 21.0°C (70°F)
Dewpoint: 14.0°C (57°F) [RH = 64%]
Pressure (altimeter): 30.00 inches Hg (1016.0 mb)
Winds: from the NNW (340 degrees) at 13 MPH (11 knots; 5.7 m/s)
Visibility: 6 or more miles (10+ km)
Ceiling: 4800 feet AGL
Clouds: few clouds at 2500 feet AGL
scattered clouds at 4300 feet AGL
broken clouds at 4800 feet AGL
Weather: no significant weather observed at this time

METAR text: ROMD 230100Z AUTO 34011KT 9999 FEW016 BKN019 OVC027 19/15 Q1017
Conditions at: ROMD (MINAMIDAITOJIMA , JP) observed 0100 UTC 23 March 2019
Temperature: 19.0°C (66°F)
Dewpoint: 15.0°C (59°F) [RH = 78%]
Pressure (altimeter): 30.03 inches Hg (1017.0 mb)
Winds: from the NNW (340 degrees) at 13 MPH (11 knots; 5.7 m/s)
Visibility: 6 or more miles (10+ km)
Ceiling: 1900 feet AGL
Clouds: few clouds at 1600 feet AGL
broken clouds at 1900 feet AGL
overcast cloud deck at 2700 feet AGL
Weather: no significant weather observed at this time

METAR text: ROMD 230000Z AUTO 35010KT 320V030 8000 OVC021 19/16 Q1017
Conditions at: ROMD (MINAMIDAITOJIMA , JP) observed 0000 UTC 23 March 2019
Temperature: 19.0°C (66°F)
Dewpoint: 16.0°C (61°F) [RH = 83%]
Pressure (altimeter): 30.03 inches Hg (1017.0 mb)
Winds: from the N (350 degrees) at 12 MPH (10 knots; 5.1 m/s)
Visibility: 5 miles ( 8 km)
Ceiling: 2100 feet AGL
Clouds: overcast cloud deck at 2100 feet AGL
Weather: no significant weather observed at this time

METAR text: ROMD 222300Z AUTO 35007KT 9999 FEW020 OVC023 20/16 Q1016
Conditions at: ROMD (MINAMIDAITOJIMA , JP) observed 2300 UTC 22 March 2019
Temperature: 20.0°C (68°F)
Dewpoint: 16.0°C (61°F) [RH = 78%]
Pressure (altimeter): 30.00 inches Hg (1016.0 mb)
Winds: from the N (350 degrees) at 8 MPH (7 knots; 3.6 m/s)
Visibility: 6 or more miles (10+ km)
Ceiling: 2300 feet AGL
Clouds: few clouds at 2000 feet AGL
overcast cloud deck at 2300 feet AGL
Weather: no significant weather observed at this time

METAR text: ROMD 222200Z AUTO 35006KT 310V030 9999 SCT019 OVC021 20/16 Q1015
Conditions at: ROMD (MINAMIDAITOJIMA , JP) observed 2200 UTC 22 March 2019
Temperature: 20.0°C (68°F)
Dewpoint: 16.0°C (61°F) [RH = 78%]
Pressure (altimeter): 29.97 inches Hg (1015.0 mb)
Winds: from the N (350 degrees) at 7 MPH (6 knots; 3.1 m/s)
Visibility: 6 or more miles (10+ km)
Ceiling: 2100 feet AGL
Clouds: scattered clouds at 1900 feet AGL
overcast cloud deck at 2100 feet AGL
Weather: no significant weather observed at this time

METAR text: ROMD 222100Z AUTO 36005KT 330V030 9999 FEW018 SCT050 BKN070 19/16 Q1014
Conditions at: ROMD (MINAMIDAITOJIMA , JP) observed 2100 UTC 22 March 2019
Temperature: 19.0°C (66°F)
Dewpoint: 16.0°C (61°F) [RH = 83%]
Pressure (altimeter): 29.94 inches Hg (1014.0 mb)
Winds: from the N (360 degrees) at 6 MPH (5 knots; 2.6 m/s)
Visibility: 6 or more miles (10+ km)
Ceiling: 7000 feet AGL
Clouds: few clouds at 1800 feet AGL
scattered clouds at 5000 feet AGL
broken clouds at 7000 feet AGL
Weather: no significant weather observed at this time

METAR text: ROMD 222000Z AUTO 35008KT 9999 FEW015 BKN050 19/17 Q1014
Conditions at: ROMD (MINAMIDAITOJIMA , JP) observed 2000 UTC 22 March 2019
Temperature: 19.0°C (66°F)
Dewpoint: 17.0°C (63°F) [RH = 88%]
Pressure (altimeter): 29.94 inches Hg (1014.0 mb)
Winds: from the N (350 degrees) at 9 MPH (8 knots; 4.1 m/s)
Visibility: 6 or more miles (10+ km)
Ceiling: 5000 feet AGL
Clouds: few clouds at 1500 feet AGL
broken clouds at 5000 feet AGL
Weather: no significant weather observed at this time

METAR text: ROMD 221900Z AUTO 36009KT 9999 FEW011 SCT013 OVC031 19/17 Q1013
Conditions at: ROMD (MINAMIDAITOJIMA , JP) observed 1900 UTC 22 March 2019
Temperature: 19.0°C (66°F)
Dewpoint: 17.0°C (63°F) [RH = 88%]
Pressure (altimeter): 29.91 inches Hg (1013.0 mb)
Winds: from the N (360 degrees) at 10 MPH (9 knots; 4.6 m/s)
Visibility: 6 or more miles (10+ km)
Ceiling: 3100 feet AGL
Clouds: few clouds at 1100 feet AGL
scattered clouds at 1300 feet AGL
overcast cloud deck at 3100 feet AGL
Weather: no significant weather observed at this time

METAR text: ROMD 221800Z AUTO 36012KT 7000 FEW005 BKN007 BKN009 19/18 Q1014
Conditions at: ROMD (MINAMIDAITOJIMA , JP) observed 1800 UTC 22 March 2019
Temperature: 19.0°C (66°F)
Dewpoint: 18.0°C (64°F) [RH = 94%]
Pressure (altimeter): 29.94 inches Hg (1014.0 mb)
Winds: from the N (360 degrees) at 14 MPH (12 knots; 6.2 m/s)
Visibility: 4 miles ( 7 km)
Ceiling: 700 feet AGL
Clouds: few clouds at 500 feet AGL
broken clouds at 700 feet AGL
broken clouds at 900 feet AGL
Weather: no significant weather observed at this time

METAR text: ROMD 221700Z AUTO 36009KT 9999 -RA BKN015 OVC027 21/18 Q1014
Conditions at: ROMD (MINAMIDAITOJIMA , JP) observed 1700 UTC 22 March 2019
Temperature: 21.0°C (70°F)
Dewpoint: 18.0°C (64°F) [RH = 83%]
Pressure (altimeter): 29.94 inches Hg (1014.0 mb)
Winds: from the N (360 degrees) at 10 MPH (9 knots; 4.6 m/s)
Visibility: 6 or more miles (10+ km)
Ceiling: 1500 feet AGL
Clouds: broken clouds at 1500 feet AGL
overcast cloud deck at 2700 feet AGL
Weather: -RA  (light rain)

METAR text: ROMD 221600Z AUTO 02006KT 9999 FEW013 BKN034 20/18 Q1014
Conditions at: ROMD (MINAMIDAITOJIMA , JP) observed 1600 UTC 22 March 2019
Temperature: 20.0°C (68°F)
Dewpoint: 18.0°C (64°F) [RH = 88%]
Pressure (altimeter): 29.94 inches Hg (1014.0 mb)
Winds: from the NNE (20 degrees) at 7 MPH (6 knots; 3.1 m/s)
Visibility: 6 or more miles (10+ km)
Ceiling: 3400 feet AGL
Clouds: few clouds at 1300 feet AGL
broken clouds at 3400 feet AGL
Weather: no significant weather observed at this time

METAR text: ROMD 221500Z AUTO 01009KT 9999 FEW012 OVC036 21/18 Q1014
Conditions at: ROMD (MINAMIDAITOJIMA , JP) observed 1500 UTC 22 March 2019
Temperature: 21.0°C (70°F)
Dewpoint: 18.0°C (64°F) [RH = 83%]
Pressure (altimeter): 29.94 inches Hg (1014.0 mb)
Winds: from the N (10 degrees) at 10 MPH (9 knots; 4.6 m/s)
Visibility: 6 or more miles (10+ km)
Ceiling: 3600 feet AGL
Clouds: few clouds at 1200 feet AGL
overcast cloud deck at 3600 feet AGL
Weather: no significant weather observed at this time

METAR text: ROMD 221400Z AUTO 01009KT 9999 FEW026 OVC034 21/17 Q1014
Conditions at: ROMD (MINAMIDAITOJIMA , JP) observed 1400 UTC 22 March 2019
Temperature: 21.0°C (70°F)
Dewpoint: 17.0°C (63°F) [RH = 78%]
Pressure (altimeter): 29.94 inches Hg (1014.0 mb)
Winds: from the N (10 degrees) at 10 MPH (9 knots; 4.6 m/s)
Visibility: 6 or more miles (10+ km)
Ceiling: 3400 feet AGL
Clouds: few clouds at 2600 feet AGL
overcast cloud deck at 3400 feet AGL
Weather: no significant weather observed at this time

METAR text: ROMD 221300Z AUTO 36011KT 9999 FEW018 BKN025 OVC029 21/17 Q1014
Conditions at: ROMD (MINAMIDAITOJIMA , JP) observed 1300 UTC 22 March 2019
Temperature: 21.0°C (70°F)
Dewpoint: 17.0°C (63°F) [RH = 78%]
Pressure (altimeter): 29.94 inches Hg (1014.0 mb)
Winds: from the N (360 degrees) at 13 MPH (11 knots; 5.7 m/s)
Visibility: 6 or more miles (10+ km)
Ceiling: 2500 feet AGL
Clouds: few clouds at 1800 feet AGL
broken clouds at 2500 feet AGL
overcast cloud deck at 2900 feet AGL
Weather: no significant weather observed at this time

METAR text: ROMD 221200Z AUTO 01012KT 9999 FEW016 OVC022 21/18 Q1014
Conditions at: ROMD (MINAMIDAITOJIMA , JP) observed 1200 UTC 22 March 2019
Temperature: 21.0°C (70°F)
Dewpoint: 18.0°C (64°F) [RH = 83%]
Pressure (altimeter): 29.94 inches Hg (1014.0 mb)
Winds: from the N (10 degrees) at 14 MPH (12 knots; 6.2 m/s)
Visibility: 6 or more miles (10+ km)
Ceiling: 2200 feet AGL
Clouds: few clouds at 1600 feet AGL
overcast cloud deck at 2200 feet AGL
Weather: no significant weather observed at this time